Portada
METAR-TAF:

METAR-TAF

Aeroports :

Atar, Mauritània

latitud: 20-30-24N, longitud: 013-02-35W, altitud: 231 m

Observació

L'informe es va fer fa 2 hores i 22 minuts, a les 15:00 UTC
Vent 12 kt del Est
Temperatura 33°C
Humitat 8%
Pressió 1015 hPa
Visibilitat: 8000 m

METAR: GQPA 261500Z 10012KT 8000 NSC 33/M05 Q1015

Hora: 17:22 (17:22 UTC)


TAF: manca

Observacions i pronòstics meteorològics de més de 4000 aeroports (METAR i TAF).

Les estacions disponibles són els punts grocs i vermells al mapa.

Posi el ratolí al punt desitjat per veure el nom de l'estació.

Feu clic per veure les observacions i els pronòstics meteorològics.

Per canviar el mapa: feu clic els botons verds amb una creu de color negre per apropar; al botó verd amb un guió per allunyar la imatge; o en les fletxes verdes per a mapes adjacents.


METAR-TAF: